sensor_id;sensor_type;location;lat;lon;timestamp;pressure;altitude;pressure_sealevel;temperature;humidity
62800;BME280;48842;51.046;13.796;2024-01-07T00:00:34;100203.34;;;4.69;56.35
62800;BME280;48842;51.046;13.796;2024-01-07T00:02:59;100213.72;;;4.69;55.99
62800;BME280;48842;51.046;13.796;2024-01-07T00:05:24;100207.72;;;4.70;55.97
62800;BME280;48842;51.046;13.796;2024-01-07T00:07:49;100202.56;;;4.72;56.23
62800;BME280;48842;51.046;13.796;2024-01-07T00:10:16;100210.41;;;4.75;56.11
62800;BME280;48842;51.046;13.796;2024-01-07T00:12:41;100216.56;;;4.80;56.00
62800;BME280;48842;51.046;13.796;2024-01-07T00:15:06;100214.03;;;4.82;55.58
62800;BME280;48842;51.046;13.796;2024-01-07T00:17:32;100220.09;;;4.82;55.74
62800;BME280;48842;51.046;13.796;2024-01-07T00:19:57;100214.84;;;4.79;55.92
62800;BME280;48842;51.046;13.796;2024-01-07T00:22:22;100220.78;;;4.75;55.85
62800;BME280;48842;51.046;13.796;2024-01-07T00:24:47;100222.41;;;4.71;55.51
62800;BME280;48842;51.046;13.796;2024-01-07T00:27:13;100220.41;;;4.61;55.30
62800;BME280;48842;51.046;13.796;2024-01-07T00:29:39;100233.19;;;4.53;55.54
62800;BME280;48842;51.046;13.796;2024-01-07T00:32:04;100238.28;;;4.49;55.74
62800;BME280;48842;51.046;13.796;2024-01-07T00:34:31;100238.16;;;4.44;55.47
62800;BME280;48842;51.046;13.796;2024-01-07T00:36:56;100235.31;;;4.36;55.79
62800;BME280;48842;51.046;13.796;2024-01-07T00:39:21;100237.13;;;4.39;55.98
62800;BME280;48842;51.046;13.796;2024-01-07T00:41:47;100245.66;;;4.35;55.90
62800;BME280;48842;51.046;13.796;2024-01-07T00:44:12;100239.53;;;4.31;55.61
62800;BME280;48842;51.046;13.796;2024-01-07T00:46:38;100245.53;;;4.30;55.72
62800;BME280;48842;51.046;13.796;2024-01-07T00:49:04;100248.97;;;4.29;56.18
62800;BME280;48842;51.046;13.796;2024-01-07T00:51:29;100251.63;;;4.31;56.15
62800;BME280;48842;51.046;13.796;2024-01-07T00:53:55;100245.63;;;4.33;55.88
62800;BME280;48842;51.046;13.796;2024-01-07T00:56:20;100254.16;;;4.29;55.56
62800;BME280;48842;51.046;13.796;2024-01-07T00:58:45;100254.88;;;4.24;55.85
62800;BME280;48842;51.046;13.796;2024-01-07T01:01:10;100250.44;;;4.19;55.82
62800;BME280;48842;51.046;13.796;2024-01-07T01:03:35;100255.56;;;4.18;55.73
62800;BME280;48842;51.046;13.796;2024-01-07T01:06:02;100263.38;;;4.19;56.17
62800;BME280;48842;51.046;13.796;2024-01-07T01:08:27;100262.69;;;4.25;55.99
62800;BME280;48842;51.046;13.796;2024-01-07T01:10:52;100270.59;;;4.30;55.87
62800;BME280;48842;51.046;13.796;2024-01-07T01:13:19;100271.47;;;4.30;55.31
62800;BME280;48842;51.046;13.796;2024-01-07T01:15:46;100269.59;;;4.26;55.56
62800;BME280;48842;51.046;13.796;2024-01-07T01:18:11;100274.78;;;4.26;55.15
62800;BME280;48842;51.046;13.796;2024-01-07T01:20:36;100272.16;;;4.25;55.34
62800;BME280;48842;51.046;13.796;2024-01-07T01:23:01;100272.97;;;4.22;55.26
62800;BME280;48842;51.046;13.796;2024-01-07T01:25:27;100280.75;;;4.22;54.95
62800;BME280;48842;51.046;13.796;2024-01-07T01:27:56;100277.22;;;4.20;55.24
62800;BME280;48842;51.046;13.796;2024-01-07T01:30:21;100274.53;;;4.17;55.17
62800;BME280;48842;51.046;13.796;2024-01-07T01:32:47;100284.03;;;4.16;55.42
62800;BME280;48842;51.046;13.796;2024-01-07T01:35:12;100277.06;;;4.14;55.14
62800;BME280;48842;51.046;13.796;2024-01-07T01:37:38;100284.69;;;4.09;55.10
62800;BME280;48842;51.046;13.796;2024-01-07T01:40:04;100291.41;;;4.02;55.46
62800;BME280;48842;51.046;13.796;2024-01-07T01:42:29;100290.44;;;3.99;55.46
62800;BME280;48842;51.046;13.796;2024-01-07T01:44:54;100290.34;;;3.96;55.55
62800;BME280;48842;51.046;13.796;2024-01-07T01:47:24;100292.78;;;3.91;55.51
62800;BME280;48842;51.046;13.796;2024-01-07T01:49:49;100291.81;;;3.88;55.48
62800;BME280;48842;51.046;13.796;2024-01-07T01:52:15;100299.56;;;3.86;55.71
62800;BME280;48842;51.046;13.796;2024-01-07T01:54:40;100290.75;;;3.81;55.08
62800;BME280;48842;51.046;13.796;2024-01-07T01:57:05;100294.38;;;3.86;55.69
62800;BME280;48842;51.046;13.796;2024-01-07T01:59:31;100305.78;;;3.93;55.56
62800;BME280;48842;51.046;13.796;2024-01-07T02:01:58;100305.94;;;3.97;55.53
62800;BME280;48842;51.046;13.796;2024-01-07T02:04:24;100297.19;;;3.94;55.31
62800;BME280;48842;51.046;13.796;2024-01-07T02:06:49;100304.91;;;3.92;55.47
62800;BME280;48842;51.046;13.796;2024-01-07T02:09:14;100314.41;;;3.92;54.97
62800;BME280;48842;51.046;13.796;2024-01-07T02:11:39;100311.88;;;3.93;55.09
62800;BME280;48842;51.046;13.796;2024-01-07T02:14:05;100313.50;;;3.91;54.90
62800;BME280;48842;51.046;13.796;2024-01-07T02:16:30;100320.31;;;3.88;55.16
62800;BME280;48842;51.046;13.796;2024-01-07T02:18:57;100316.75;;;3.84;55.06
62800;BME280;48842;51.046;13.796;2024-01-07T02:21:22;100317.69;;;3.86;55.10
62800;BME280;48842;51.046;13.796;2024-01-07T02:23:47;100327.31;;;3.90;55.11
62800;BME280;48842;51.046;13.796;2024-01-07T02:26:12;100332.59;;;3.93;55.13
62800;BME280;48842;51.046;13.796;2024-01-07T02:28:38;100321.53;;;3.99;55.11
62800;BME280;48842;51.046;13.796;2024-01-07T02:31:03;100329.50;;;4.05;54.81
62800;BME280;48842;51.046;13.796;2024-01-07T02:33:28;100327.97;;;4.12;55.18
62800;BME280;48842;51.046;13.796;2024-01-07T02:35:57;100335.88;;;4.16;54.97
62800;BME280;48842;51.046;13.796;2024-01-07T02:38:22;100333.34;;;4.18;54.41
62800;BME280;48842;51.046;13.796;2024-01-07T02:40:47;100328.94;;;4.15;54.18
62800;BME280;48842;51.046;13.796;2024-01-07T02:43:12;100341.03;;;4.15;54.58
62800;BME280;48842;51.046;13.796;2024-01-07T02:45:38;100335.88;;;4.16;54.38
62800;BME280;48842;51.046;13.796;2024-01-07T02:48:03;100349.75;;;4.18;54.76
62800;BME280;48842;51.046;13.796;2024-01-07T02:50:28;100346.13;;;4.12;54.17
62800;BME280;48842;51.046;13.796;2024-01-07T02:52:54;100346.84;;;4.08;54.19
62800;BME280;48842;51.046;13.796;2024-01-07T02:55:20;100350.28;;;4.07;54.19
62800;BME280;48842;51.046;13.796;2024-01-07T02:57:45;100349.34;;;4.05;54.27
62800;BME280;48842;51.046;13.796;2024-01-07T03:00:11;100350.09;;;4.00;53.77
62800;BME280;48842;51.046;13.796;2024-01-07T03:02:36;100342.06;;;3.93;54.02
62800;BME280;48842;51.046;13.796;2024-01-07T03:05:02;100349.59;;;3.85;53.62
62800;BME280;48842;51.046;13.796;2024-01-07T03:07:28;100355.41;;;3.78;53.26
62800;BME280;48842;51.046;13.796;2024-01-07T03:09:53;100356.06;;;3.71;53.64
62800;BME280;48842;51.046;13.796;2024-01-07T03:12:18;100352.44;;;3.65;53.17
62800;BME280;48842;51.046;13.796;2024-01-07T03:14:44;100354.09;;;3.63;53.78
62800;BME280;48842;51.046;13.796;2024-01-07T03:17:10;100354.00;;;3.60;53.42
62800;BME280;48842;51.046;13.796;2024-01-07T03:19:37;100351.31;;;3.57;53.36
62800;BME280;48842;51.046;13.796;2024-01-07T03:22:02;100355.56;;;3.55;53.29
62800;BME280;48842;51.046;13.796;2024-01-07T03:24:27;100353.03;;;3.57;53.21
62800;BME280;48842;51.046;13.796;2024-01-07T03:26:53;100350.53;;;3.60;53.85
62800;BME280;48842;51.046;13.796;2024-01-07T03:29:18;100348.91;;;3.63;53.52
62800;BME280;48842;51.046;13.796;2024-01-07T03:31:43;100349.03;;;3.66;53.27
62800;BME280;48842;51.046;13.796;2024-01-07T03:34:09;100357.63;;;3.65;52.95
62800;BME280;48842;51.046;13.796;2024-01-07T03:36:34;100355.00;;;3.64;53.28
62800;BME280;48842;51.046;13.796;2024-01-07T03:38:59;100353.31;;;3.66;53.29
62800;BME280;48842;51.046;13.796;2024-01-07T03:41:25;100355.13;;;3.69;52.82
62800;BME280;48842;51.046;13.796;2024-01-07T03:43:50;100358.75;;;3.74;53.53
62800;BME280;48842;51.046;13.796;2024-01-07T03:46:16;100358.88;;;3.77;52.77
62800;BME280;48842;51.046;13.796;2024-01-07T03:48:42;100363.28;;;3.81;53.13
62800;BME280;48842;51.046;13.796;2024-01-07T03:51:08;100365.88;;;3.81;53.25
62800;BME280;48842;51.046;13.796;2024-01-07T03:53:33;100365.06;;;3.82;52.75
62800;BME280;48842;51.046;13.796;2024-01-07T03:55:58;100366.72;;;3.80;52.73
62800;BME280;48842;51.046;13.796;2024-01-07T03:58:25;100375.22;;;3.76;52.92
62800;BME280;48842;51.046;13.796;2024-01-07T04:00:50;100371.69;;;3.74;52.75
62800;BME280;48842;51.046;13.796;2024-01-07T04:03:15;100379.63;;;3.78;52.95
62800;BME280;48842;51.046;13.796;2024-01-07T04:05:40;100375.41;;;3.82;53.15
62800;BME280;48842;51.046;13.796;2024-01-07T04:08:09;100384.00;;;3.81;52.96
62800;BME280;48842;51.046;13.796;2024-01-07T04:10:34;100384.78;;;3.77;52.26
62800;BME280;48842;51.046;13.796;2024-01-07T04:12:59;100380.28;;;3.71;52.48
62800;BME280;48842;51.046;13.796;2024-01-07T04:15:25;100398.31;;;3.68;53.09
62800;BME280;48842;51.046;13.796;2024-01-07T04:17:50;100393.94;;;3.67;52.83
62800;BME280;48842;51.046;13.796;2024-01-07T04:20:15;100390.47;;;3.66;53.13
62800;BME280;48842;51.046;13.796;2024-01-07T04:22:41;100388.72;;;3.65;52.68
62800;BME280;48842;51.046;13.796;2024-01-07T04:25:06;100399.06;;;3.65;52.72
62800;BME280;48842;51.046;13.796;2024-01-07T04:27:36;100400.00;;;3.67;52.40
62800;BME280;48842;51.046;13.796;2024-01-07T04:30:04;100396.47;;;3.65;51.97
62800;BME280;48842;51.046;13.796;2024-01-07T04:32:29;100399.75;;;3.60;52.12
62800;BME280;48842;51.046;13.796;2024-01-07T04:34:54;100403.06;;;3.56;52.34
62800;BME280;48842;51.046;13.796;2024-01-07T04:37:21;100400.31;;;3.51;52.78
62800;BME280;48842;51.046;13.796;2024-01-07T04:39:46;100411.50;;;3.50;52.44
62800;BME280;48842;51.046;13.796;2024-01-07T04:42:11;100413.13;;;3.46;52.44
62800;BME280;48842;51.046;13.796;2024-01-07T04:44:37;100408.81;;;3.47;52.47
62800;BME280;48842;51.046;13.796;2024-01-07T04:47:02;100415.72;;;3.46;52.14
62800;BME280;48842;51.046;13.796;2024-01-07T04:49:27;100425.91;;;3.42;53.02
62800;BME280;48842;51.046;13.796;2024-01-07T04:51:52;100418.91;;;3.39;52.46
62800;BME280;48842;51.046;13.796;2024-01-07T04:54:17;100414.66;;;3.41;52.37
62800;BME280;48842;51.046;13.796;2024-01-07T04:56:43;100422.41;;;3.41;52.30
62800;BME280;48842;51.046;13.796;2024-01-07T04:59:09;100430.25;;;3.43;52.45
62800;BME280;48842;51.046;13.796;2024-01-07T05:01:34;100431.09;;;3.42;52.19
62800;BME280;48842;51.046;13.796;2024-01-07T05:04:00;100429.41;;;3.44;52.42
62800;BME280;48842;51.046;13.796;2024-01-07T05:06:26;100432.94;;;3.46;52.88
62800;BME280;48842;51.046;13.796;2024-01-07T05:08:51;100433.06;;;3.49;52.25
62800;BME280;48842;51.046;13.796;2024-01-07T05:11:16;100431.28;;;3.48;52.75
62800;BME280;48842;51.046;13.796;2024-01-07T05:13:42;100435.47;;;3.44;52.45
62800;BME280;48842;51.046;13.796;2024-01-07T05:16:07;100433.63;;;3.40;52.34
62800;BME280;48842;51.046;13.796;2024-01-07T05:18:33;100441.25;;;3.37;52.14
62800;BME280;48842;51.046;13.796;2024-01-07T05:20:58;100434.19;;;3.31;52.25
62800;BME280;48842;51.046;13.796;2024-01-07T05:23:23;100448.91;;;3.34;52.51
62800;BME280;48842;51.046;13.796;2024-01-07T05:25:48;100450.75;;;3.37;52.01
62800;BME280;48842;51.046;13.796;2024-01-07T05:28:14;100458.50;;;3.37;51.78
62800;BME280;48842;51.046;13.796;2024-01-07T05:30:39;100455.22;;;3.41;52.43
62800;BME280;48842;51.046;13.796;2024-01-07T05:33:05;100462.25;;;3.45;52.67
62800;BME280;48842;51.046;13.796;2024-01-07T05:35:30;100457.13;;;3.46;52.13
62800;BME280;48842;51.046;13.796;2024-01-07T05:37:56;100461.25;;;3.41;51.64
62800;BME280;48842;51.046;13.796;2024-01-07T05:40:21;100467.09;;;3.36;52.20
62800;BME280;48842;51.046;13.796;2024-01-07T05:42:47;100459.34;;;3.36;52.27
62800;BME280;48842;51.046;13.796;2024-01-07T05:45:12;100469.75;;;3.37;52.00
62800;BME280;48842;51.046;13.796;2024-01-07T05:47:37;100466.34;;;3.38;51.70
62800;BME280;48842;51.046;13.796;2024-01-07T05:50:03;100466.44;;;3.41;52.17
62800;BME280;48842;51.046;13.796;2024-01-07T05:52:28;100469.88;;;3.40;51.66
62800;BME280;48842;51.046;13.796;2024-01-07T05:54:53;100473.03;;;3.31;51.38
62800;BME280;48842;51.046;13.796;2024-01-07T05:57:19;100475.38;;;3.25;51.68
62800;BME280;48842;51.046;13.796;2024-01-07T05:59:44;100482.00;;;3.17;51.73
62800;BME280;48842;51.046;13.796;2024-01-07T06:02:10;100480.22;;;3.16;51.93
62800;BME280;48842;51.046;13.796;2024-01-07T06:04:37;100491.56;;;3.20;51.70
62800;BME280;48842;51.046;13.796;2024-01-07T06:07:02;100493.31;;;3.21;51.39
62800;BME280;48842;51.046;13.796;2024-01-07T06:09:28;100490.84;;;3.24;51.30
62800;BME280;48842;51.046;13.796;2024-01-07T06:11:53;100496.88;;;3.23;51.52
62800;BME280;48842;51.046;13.796;2024-01-07T06:14:18;100498.50;;;3.21;51.54
62800;BME280;48842;51.046;13.796;2024-01-07T06:16:43;100510.56;;;3.20;51.41
62800;BME280;48842;51.046;13.796;2024-01-07T06:19:09;100505.44;;;3.22;51.38
62800;BME280;48842;51.046;13.796;2024-01-07T06:21:34;100509.88;;;3.24;51.29
62800;BME280;48842;51.046;13.796;2024-01-07T06:24:00;100511.72;;;3.28;51.48
62800;BME280;48842;51.046;13.796;2024-01-07T06:26:25;100519.66;;;3.33;51.19
62800;BME280;48842;51.046;13.796;2024-01-07T06:28:51;100517.03;;;3.31;51.47
62800;BME280;48842;51.046;13.796;2024-01-07T06:31:16;100523.69;;;3.25;51.21
62800;BME280;48842;51.046;13.796;2024-01-07T06:33:41;100524.28;;;3.18;50.96
62800;BME280;48842;51.046;13.796;2024-01-07T06:36:06;100530.91;;;3.11;51.23
62800;BME280;48842;51.046;13.796;2024-01-07T06:38:32;100537.63;;;3.06;51.09
62800;BME280;48842;51.046;13.796;2024-01-07T06:40:57;100546.03;;;3.00;51.09
62800;BME280;48842;51.046;13.796;2024-01-07T06:43:26;100554.63;;;2.99;51.35
62800;BME280;48842;51.046;13.796;2024-01-07T06:45:51;100551.97;;;2.97;51.11
62800;BME280;48842;51.046;13.796;2024-01-07T06:48:17;100553.63;;;2.95;50.89
62800;BME280;48842;51.046;13.796;2024-01-07T06:50:42;100565.50;;;2.90;50.98
62800;BME280;48842;51.046;13.796;2024-01-07T06:53:07;100567.91;;;2.86;50.47
62800;BME280;48842;51.046;13.796;2024-01-07T06:55:33;100565.34;;;2.86;50.72
62800;BME280;48842;51.046;13.796;2024-01-07T06:57:58;100566.22;;;2.86;50.74
62800;BME280;48842;51.046;13.796;2024-01-07T07:00:24;100575.72;;;2.87;50.80
62800;BME280;48842;51.046;13.796;2024-01-07T07:02:51;100573.09;;;2.86;50.64
62800;BME280;48842;51.046;13.796;2024-01-07T07:05:17;100567.81;;;2.83;50.62
62800;BME280;48842;51.046;13.796;2024-01-07T07:07:42;100570.31;;;2.81;50.12
62800;BME280;48842;51.046;13.796;2024-01-07T07:10:07;100581.44;;;2.78;50.44
62800;BME280;48842;51.046;13.796;2024-01-07T07:12:33;100580.56;;;2.78;50.32
62800;BME280;48842;51.046;13.796;2024-01-07T07:14:59;100585.91;;;2.83;50.33
62800;BME280;48842;51.046;13.796;2024-01-07T07:17:26;100590.31;;;2.85;50.10
62800;BME280;48842;51.046;13.796;2024-01-07T07:19:51;100589.50;;;2.86;50.56
62800;BME280;48842;51.046;13.796;2024-01-07T07:22:16;100592.09;;;2.86;50.61
62800;BME280;48842;51.046;13.796;2024-01-07T07:24:42;100600.63;;;2.84;50.35
62800;BME280;48842;51.046;13.796;2024-01-07T07:27:07;100596.94;;;2.78;50.30
62800;BME280;48842;51.046;13.796;2024-01-07T07:29:33;100603.59;;;2.72;50.33
62800;BME280;48842;51.046;13.796;2024-01-07T07:31:58;100601.81;;;2.71;50.36
62800;BME280;48842;51.046;13.796;2024-01-07T07:34:25;100605.28;;;2.71;50.52
62800;BME280;48842;51.046;13.796;2024-01-07T07:36:50;100609.59;;;2.71;50.49
62800;BME280;48842;51.046;13.796;2024-01-07T07:39:15;100608.66;;;2.69;50.32
62800;BME280;48842;51.046;13.796;2024-01-07T07:41:40;100615.44;;;2.67;50.13
62800;BME280;48842;51.046;13.796;2024-01-07T07:44:06;100618.84;;;2.66;50.15
62800;BME280;48842;51.046;13.796;2024-01-07T07:46:31;100624.84;;;2.65;50.54
62800;BME280;48842;51.046;13.796;2024-01-07T07:48:57;100622.97;;;2.60;50.04
62800;BME280;48842;51.046;13.796;2024-01-07T07:51:22;100636.69;;;2.59;50.18
62800;BME280;48842;51.046;13.796;2024-01-07T07:53:47;100638.47;;;2.60;50.00
62800;BME280;48842;51.046;13.796;2024-01-07T07:56:12;100642.84;;;2.61;50.21
62800;BME280;48842;51.046;13.796;2024-01-07T07:58:38;100643.66;;;2.60;49.85
62800;BME280;48842;51.046;13.796;2024-01-07T08:01:04;100635.78;;;2.57;50.13
62800;BME280;48842;51.046;13.796;2024-01-07T08:03:29;100647.84;;;2.58;50.01
62800;BME280;48842;51.046;13.796;2024-01-07T08:05:55;100648.81;;;2.60;49.51
62800;BME280;48842;51.046;13.796;2024-01-07T08:08:21;100650.72;;;2.65;50.02
62800;BME280;48842;51.046;13.796;2024-01-07T08:10:46;100644.06;;;2.71;50.30
62800;BME280;48842;51.046;13.796;2024-01-07T08:13:11;100645.91;;;2.74;49.50
62800;BME280;48842;51.046;13.796;2024-01-07T08:15:36;100656.13;;;2.71;49.28
62800;BME280;48842;51.046;13.796;2024-01-07T08:18:03;100660.38;;;2.69;49.29
62800;BME280;48842;51.046;13.796;2024-01-07T08:20:28;100668.13;;;2.69;49.15
62800;BME280;48842;51.046;13.796;2024-01-07T08:22:54;100660.38;;;2.69;49.09
62800;BME280;48842;51.046;13.796;2024-01-07T08:25:19;100662.97;;;2.69;49.05
62800;BME280;48842;51.046;13.796;2024-01-07T08:27:44;100665.53;;;2.69;49.14
62800;BME280;48842;51.046;13.796;2024-01-07T08:30:10;100667.91;;;2.64;49.21
62800;BME280;48842;51.046;13.796;2024-01-07T08:32:38;100668.53;;;2.58;49.24
62800;BME280;48842;51.046;13.796;2024-01-07T08:35:03;100674.50;;;2.56;49.04
62800;BME280;48842;51.046;13.796;2024-01-07T08:37:29;100670.19;;;2.56;48.95
62800;BME280;48842;51.046;13.796;2024-01-07T08:39:55;100679.66;;;2.56;48.83
62800;BME280;48842;51.046;13.796;2024-01-07T08:42:20;100683.19;;;2.58;48.60
62800;BME280;48842;51.046;13.796;2024-01-07T08:44:45;100683.31;;;2.61;48.65
62800;BME280;48842;51.046;13.796;2024-01-07T08:47:12;100686.97;;;2.66;48.99
62800;BME280;48842;51.046;13.796;2024-01-07T08:49:38;100685.47;;;2.71;48.68
62800;BME280;48842;51.046;13.796;2024-01-07T08:52:04;100680.34;;;2.73;48.64
62800;BME280;48842;51.046;13.796;2024-01-07T08:54:30;100687.16;;;2.71;48.20
62800;BME280;48842;51.046;13.796;2024-01-07T08:56:55;100695.50;;;2.64;48.22
62800;BME280;48842;51.046;13.796;2024-01-07T08:59:20;100692.72;;;2.59;48.38
62800;BME280;48842;51.046;13.796;2024-01-07T09:01:46;100698.50;;;2.53;47.69
62800;BME280;48842;51.046;13.796;2024-01-07T09:04:11;100704.25;;;2.46;48.01
62800;BME280;48842;51.046;13.796;2024-01-07T09:06:37;100704.91;;;2.42;47.62
62800;BME280;48842;51.046;13.796;2024-01-07T09:09:03;100704.09;;;2.43;47.88
62800;BME280;48842;51.046;13.796;2024-01-07T09:11:32;100706.69;;;2.43;47.94
62800;BME280;48842;51.046;13.796;2024-01-07T09:13:57;100717.22;;;2.48;48.13
62800;BME280;48842;51.046;13.796;2024-01-07T09:16:22;100714.03;;;2.53;48.12
62800;BME280;48842;51.046;13.796;2024-01-07T09:18:47;100711.63;;;2.58;47.95
62800;BME280;48842;51.046;13.796;2024-01-07T09:21:13;100718.75;;;2.64;47.35
62800;BME280;48842;51.046;13.796;2024-01-07T09:23:40;100725.91;;;2.69;47.72
62800;BME280;48842;51.046;13.796;2024-01-07T09:26:08;100721.41;;;2.65;47.34
62800;BME280;48842;51.046;13.796;2024-01-07T09:28:33;100719.63;;;2.64;47.31
62800;BME280;48842;51.046;13.796;2024-01-07T09:30:58;100729.09;;;2.64;47.59
62800;BME280;48842;51.046;13.796;2024-01-07T09:33:23;100731.94;;;2.70;47.53
62800;BME280;48842;51.046;13.796;2024-01-07T09:35:50;100732.34;;;2.79;47.76
62800;BME280;48842;51.046;13.796;2024-01-07T09:38:15;100724.03;;;2.86;47.58
62800;BME280;48842;51.046;13.796;2024-01-07T09:40:41;100731.97;;;2.91;47.32
62800;BME280;48842;51.046;13.796;2024-01-07T09:43:06;100729.44;;;2.92;47.06
62800;BME280;48842;51.046;13.796;2024-01-07T09:45:31;100726.00;;;2.93;47.36
62800;BME280;48842;51.046;13.796;2024-01-07T09:47:57;100725.94;;;2.92;46.97
62800;BME280;48842;51.046;13.796;2024-01-07T09:50:23;100728.41;;;2.89;46.86
62800;BME280;48842;51.046;13.796;2024-01-07T09:52:48;100728.34;;;2.87;46.66
62800;BME280;48842;51.046;13.796;2024-01-07T09:55:22;100731.69;;;2.85;46.70
62800;BME280;48842;51.046;13.796;2024-01-07T09:57:51;100721.22;;;2.82;46.96
62800;BME280;48842;51.046;13.796;2024-01-07T10:00:16;100732.47;;;2.82;47.02
62800;BME280;48842;51.046;13.796;2024-01-07T10:02:42;100729.88;;;2.82;47.31
62800;BME280;48842;51.046;13.796;2024-01-07T10:05:07;100730.88;;;2.86;47.16
62800;BME280;48842;51.046;13.796;2024-01-07T10:07:37;100729.31;;;2.89;46.85
62800;BME280;48842;51.046;13.796;2024-01-07T10:10:17;100734.50;;;2.89;46.12
62800;BME280;48842;51.046;13.796;2024-01-07T10:12:46;100732.72;;;2.88;46.67
62800;BME280;48842;51.046;13.796;2024-01-07T10:15:12;100745.66;;;2.88;46.70
62800;BME280;48842;51.046;13.796;2024-01-07T10:17:37;100747.03;;;2.80;46.32
62800;BME280;48842;51.046;13.796;2024-01-07T10:20:06;100743.94;;;2.68;46.58
62800;BME280;48842;51.046;13.796;2024-01-07T10:22:35;100742.59;;;2.56;46.29
62800;BME280;48842;51.046;13.796;2024-01-07T10:25:00;100744.59;;;2.42;46.32
62800;BME280;48842;51.046;13.796;2024-01-07T10:27:25;100747.66;;;2.34;46.70
62800;BME280;48842;51.046;13.796;2024-01-07T10:29:51;100755.97;;;2.26;46.43
62800;BME280;48842;51.046;13.796;2024-01-07T10:32:19;100752.28;;;2.21;46.50
62800;BME280;48842;51.046;13.796;2024-01-07T10:34:46;100768.53;;;2.19;46.32
62800;BME280;48842;51.046;13.796;2024-01-07T10:37:12;100764.78;;;2.12;46.47
62800;BME280;48842;51.046;13.796;2024-01-07T10:39:39;100763.88;;;2.12;46.88
62800;BME280;48842;51.046;13.796;2024-01-07T10:42:05;100757.03;;;2.12;46.31
62800;BME280;48842;51.046;13.796;2024-01-07T10:44:32;100769.28;;;2.16;46.74
62800;BME280;48842;51.046;13.796;2024-01-07T10:46:59;100771.03;;;2.17;46.42
62800;BME280;48842;51.046;13.796;2024-01-07T10:49:27;100765.66;;;2.13;46.53
62800;BME280;48842;51.046;13.796;2024-01-07T10:52:03;100769.00;;;2.10;46.32
62800;BME280;48842;51.046;13.796;2024-01-07T10:54:35;100772.53;;;2.12;46.53
62800;BME280;48842;51.046;13.796;2024-01-07T10:57:12;100769.13;;;2.13;46.27
62800;BME280;48842;51.046;13.796;2024-01-07T10:59:39;100769.13;;;2.13;46.10
62800;BME280;48842;51.046;13.796;2024-01-07T11:02:07;100763.09;;;2.13;46.26
62800;BME280;48842;51.046;13.796;2024-01-07T11:04:56;100761.47;;;2.15;46.20
62800;BME280;48842;51.046;13.796;2024-01-07T11:07:34;100763.34;;;2.19;45.71
62800;BME280;48842;51.046;13.796;2024-01-07T11:10:16;100765.19;;;2.21;45.80
62800;BME280;48842;51.046;13.796;2024-01-07T11:12:43;100767.91;;;2.24;45.79
62800;BME280;48842;51.046;13.796;2024-01-07T11:15:10;100767.16;;;2.27;45.98
62800;BME280;48842;51.046;13.796;2024-01-07T11:20:06;100768.34;;;2.34;45.65
62800;BME280;48842;51.046;13.796;2024-01-07T11:22:33;100770.34;;;2.41;45.53
62800;BME280;48842;51.046;13.796;2024-01-07T11:25:02;100766.75;;;2.37;44.95
62800;BME280;48842;51.046;13.796;2024-01-07T11:27:31;100769.28;;;2.36;44.84
62800;BME280;48842;51.046;13.796;2024-01-07T11:29:58;100770.81;;;2.32;44.72
62800;BME280;48842;51.046;13.796;2024-01-07T11:32:29;100773.16;;;2.26;44.48
62800;BME280;48842;51.046;13.796;2024-01-07T11:34:54;100786.19;;;2.29;44.69
62800;BME280;48842;51.046;13.796;2024-01-07T11:37:21;100782.94;;;2.33;44.41
62800;BME280;48842;51.046;13.796;2024-01-07T11:39:48;100777.84;;;2.35;44.28
62800;BME280;48842;51.046;13.796;2024-01-07T11:42:15;100777.09;;;2.37;44.06
62800;BME280;48842;51.046;13.796;2024-01-07T11:44:52;100785.00;;;2.40;44.12
62800;BME280;48842;51.046;13.796;2024-01-07T11:47:19;100778.47;;;2.49;43.89
62800;BME280;48842;51.046;13.796;2024-01-07T11:49:45;100777.25;;;2.60;43.94
62800;BME280;48842;51.046;13.796;2024-01-07T11:52:10;100781.56;;;2.61;43.26
62800;BME280;48842;51.046;13.796;2024-01-07T11:54:37;100782.25;;;2.57;43.47
62800;BME280;48842;51.046;13.796;2024-01-07T11:57:04;100780.44;;;2.54;43.64
62800;BME280;48842;51.046;13.796;2024-01-07T11:59:29;100789.19;;;2.58;43.53
62800;BME280;48842;51.046;13.796;2024-01-07T12:01:54;100778.25;;;2.64;43.43
62800;BME280;48842;51.046;13.796;2024-01-07T12:04:20;100794.63;;;2.64;43.42
62800;BME280;48842;51.046;13.796;2024-01-07T12:06:46;100788.94;;;2.52;42.80
62800;BME280;48842;51.046;13.796;2024-01-07T12:09:12;100795.13;;;2.36;43.05
62800;BME280;48842;51.046;13.796;2024-01-07T12:11:38;100800.56;;;2.22;43.28
62800;BME280;48842;51.046;13.796;2024-01-07T12:14:04;100808.84;;;2.15;43.53
62800;BME280;48842;51.046;13.796;2024-01-07T12:16:30;100804.50;;;2.14;43.79
62800;BME280;48842;51.046;13.796;2024-01-07T12:18:55;100803.97;;;2.21;43.72
62800;BME280;48842;51.046;13.796;2024-01-07T12:21:20;100804.53;;;2.34;43.66
62800;BME280;48842;51.046;13.796;2024-01-07T12:23:48;100806.53;;;2.41;43.88
62800;BME280;48842;51.046;13.796;2024-01-07T12:26:15;100804.94;;;2.43;43.57
62800;BME280;48842;51.046;13.796;2024-01-07T12:28:41;100800.56;;;2.42;43.67
62800;BME280;48842;51.046;13.796;2024-01-07T12:31:07;100810.69;;;2.37;43.39
62800;BME280;48842;51.046;13.796;2024-01-07T12:33:32;100805.25;;;2.31;43.47
62800;BME280;48842;51.046;13.796;2024-01-07T12:35:59;100809.25;;;2.24;43.38
62800;BME280;48842;51.046;13.796;2024-01-07T12:38:24;100814.44;;;2.24;43.68
62800;BME280;48842;51.046;13.796;2024-01-07T12:40:51;100818.13;;;2.30;43.86
62800;BME280;48842;51.046;13.796;2024-01-07T12:43:16;100820.91;;;2.34;43.81
62800;BME280;48842;51.046;13.796;2024-01-07T12:45:41;100819.25;;;2.36;43.75